LGAVLGKO

Guest
Details From LGAV - Athens Intl Airport Elefterios Venizel
To LGKO - KOS
Flight Number -
Tags generated
Created
Modified
Stats Distance 165 nm / 306 km
Max Altitude 19,700 ft / 6,005 m
Waypoints 3
Social Downloads 0
Likes 0
Share VATSIM

Download

Looking for another format? Having issues loading an existing format? Contact us
Advertisement - Login to hide

Notes

Basic altitude profile: - Ascent Rate: 2500ft/min - Ascent Speed: 250kts - Cruise Altitude: 16000ft - Cruise Speed: 420kts - Descent Rate: 1500ft/min - Descent Speed: 250kts Options: - Use NATs: yes - Use PACOTS: yes - Use low airways: yes - Use high airways: yes

Route

LGAV MKN LGKO

ID Type Via Altitude Latitude Longitude Leg Dist Tot Dist Heading (true) Name
O LGAV APT - 0 ft / 0 m 37.93636˚ 23.94447˚ - 0 nm - Athens Intl Airport Elefterios Venizel
MKN VOR - 19,700 ft / 6,005 m 37.44027˚ 25.34449˚ 72 nm 72 nm 114° / 115° MIKONOS VOR-DME
O LGKO APT - 0 ft / 0 m 36.79440˚ 27.09076˚ 92 nm 165 nm 114° / 115° KOS

Altitude Profile

Advertisement - Login to hide

Weather


0- 5 10 15 20 25 30 35+ Temperature / ° C

Clouds and Precipitation
Forecast for 2017-12-12 00:00 UTC. Updated 22 minutes ago

Ground ~20,000 ft ~40,000 ft Winds

LGAV

Details ICAO LGAV (ATH)
Name Athens Intl Airport Elefterios Venizel
Region Greece
Timezone Europe/Athens (UTC+2.0)
Stats Elevation 308 ft / 94 m (AMSL)
Location 37.936357° 23.944470°
Runways 2
Magnetic Variation 4.483° E

METAR

LGAV 112320Z 15005KT 9999 FEW035 11/05 Q1023 NOSIG

Decode

TAF

TAF TAF LGAV 111700Z 1118/1218 23012KT 9999 FEW025 BECMG 1200/1202 VRB03KT BECMG 1208/1210 20012KT

Decode

Departure Runways

ID Width Length Bearing (true) Bearing (mag) Surface Threshold Offset Overrun Length
03L 148 ft / 45 m 12,474 ft / 3,802 m 36.51° 32.03° Asphalt 984 ft / 300 m 393 ft / 120 m
03R 148 ft / 45 m 13,131 ft / 4,002 m 36.52° 32.04° Asphalt 984 ft / 300 m 393 ft / 120 m
21L 148 ft / 45 m 13,131 ft / 4,002 m 216.54° 212.06° Asphalt 984 ft / 300 m 393 ft / 120 m
21R 148 ft / 45 m 12,474 ft / 3,802 m 216.53° 212.05° Asphalt 984 ft / 300 m 393 ft / 120 m

LGKO

Details ICAO LGKO (KGS)
Name KOS
Region Greece
Timezone Europe/Athens (UTC+2.0)
Stats Elevation 412 ft / 126 m (AMSL)
Location 36.794403° 27.090764°
Runways 1
Magnetic Variation 4.723° E

METAR

LGKO 112320Z 00000KT 9999 FEW016 BKN030 14/12 Q1024

Decode

TAF

TAF LGKO 111700Z 1118/1218 VRB05KT 9999 FEW016 SCT025 TEMPO 1118/1212 BKN040 BECMG 1206/1208 23012KT BECMG 1212/1214 30010KT

Decode

Destination Runways

ID Width Length Bearing (true) Bearing (mag) Surface Threshold Offset Overrun Length
14 148 ft / 45 m 7,923 ft / 2,415 m 148.29° 143.57° Asphalt 0 ft / 0 m 240 ft / 73 m
32 148 ft / 45 m 7,923 ft / 2,415 m 328.30° 323.58° Asphalt 0 ft / 0 m 205 ft / 62 m

Popular Alternatives